Terminal Aerodrome Forecast
Issued by NWS Corpus Christi, TX

Home | Current Version | Previous Version | Text Only | Print | Product List | Glossary On
Versions: 1 2 3 4 5 6 7 8 9 10 11 12 13 14 15 16
000
FTUS44 KCRP 050249 AAA
TAFVCT
TAF AMD
KVCT 050249Z 0503/0524 12010KT P6SM FEW022
     FM051000 11006KT P6SM BKN022
     FM051500 15013G18KT P6SM BKN030
     FM051800 15018G28KT P6SM SCT030 OVC050=

USA.gov is the U.S. government's official web portal to all federal, state and local government web resources and services.